Time;durP1;ratioP1;P1;durP2;ratioP2;P2;SDS_P1;SDS_P2;PMS_P1;PMS_P2;Temp;Humidity;BMP_temperature;BMP_pressure;BME280_temperature;BME280_humidity;BME280_pressure;Samples;Min_cycle;Max_cycle;Signal;HPM_P1;HPM_P2
2022/08/24 00:01:22;;;;;;;2.05;1.55;;;;;;;18.63;87.56;100861.97;6210259;28;20147;-86
2022/08/24 00:04:24;;;;;;;1.95;1.40;;;;;;;18.56;88.55;100861.00;6209367;28;20045;-86
2022/08/24 00:07:26;;;;;;;2.58;1.50;;;;;;;18.50;90.11;100854.56;6212148;28;20041;-86
2022/08/24 00:10:28;;;;;;;2.08;1.35;;;;;;;18.46;89.99;100849.84;6215619;28;20519;-86
2022/08/24 00:13:30;;;;;;;2.55;1.60;;;;;;;18.41;88.06;100849.50;6215305;28;20032;-86
2022/08/24 00:16:34;;;;;;;5.40;1.80;;;;;;;18.36;89.87;100847.41;6211955;28;20054;-86
2022/08/24 00:19:36;;;;;;;1.55;1.45;;;;;;;18.35;90.60;100852.78;6210060;28;20042;-86
2022/08/24 00:22:38;;;;;;;3.00;1.75;;;;;;;18.34;89.45;100848.53;6205545;28;20053;-86
2022/08/24 00:25:41;;;;;;;5.20;1.77;;;;;;;18.34;90.25;100848.53;6205052;28;20569;-85
2022/08/24 00:28:43;;;;;;;2.88;1.73;;;;;;;18.29;89.30;100854.28;6207903;28;20046;-86
2022/08/24 00:31:47;;;;;;;3.90;1.90;;;;;;;18.26;91.07;100847.56;6216241;28;20344;-86
2022/08/24 00:34:49;;;;;;;4.53;2.30;;;;;;;18.22;89.74;100854.09;6223282;28;20056;-86
2022/08/24 00:37:59;;;;;;;2.80;1.60;;;;;;;18.20;91.53;100858.69;6215165;28;20503;-86
2022/08/24 00:41:03;;;;;;;3.75;1.70;;;;;;;18.16;89.69;100854.75;6208188;28;20042;-86
2022/08/24 00:44:05;;;;;;;3.55;1.70;;;;;;;18.15;88.99;100858.34;6198429;28;20078;-86
2022/08/24 00:47:18;;;;;;;3.70;1.90;;;;;;;18.12;90.46;100848.19;6214560;28;20097;-86
2022/08/24 00:50:46;;;;;;;7.10;1.77;;;;;;;18.10;91.06;100858.00;6196901;28;21155;-86
2022/08/24 00:53:54;;;;;;;3.67;1.80;;;;;;;18.06;89.74;100849.69;6207137;28;20042;-86
2022/08/24 00:57:01;;;;;;;2.83;1.70;;;;;;;18.09;90.84;100851.16;6207623;28;20042;-86
2022/08/24 01:00:20;;;;;;;3.30;1.42;;;;;;;18.11;88.85;100843.09;6216100;28;20049;-86
2022/08/24 01:03:22;;;;;;;4.40;1.60;;;;;;;18.14;90.54;100840.19;6205605;28;20137;-86
2022/08/24 01:06:24;;;;;;;3.00;1.50;;;;;;;18.13;89.83;100847.19;6211230;28;20056;-85
2022/08/24 01:09:27;;;;;;;5.65;1.80;;;;;;;18.11;88.03;100838.72;6208251;28;20297;-86
2022/08/24 01:12:32;;;;;;;2.22;1.50;;;;;;;18.11;90.31;100850.97;6199976;28;20045;-86
2022/08/24 01:15:47;;;;;;;2.92;2.00;;;;;;;18.05;89.23;100839.34;6204253;28;20654;-86
2022/08/24 01:18:49;;;;;;;6.00;1.80;;;;;;;18.00;90.15;100844.25;6207574;28;20050;-86
2022/08/24 01:22:04;;;;;;;3.63;1.80;;;;;;;17.94;88.23;100839.69;6197940;28;20415;-86
2022/08/24 01:25:07;;;;;;;4.38;2.03;;;;;;;17.90;90.19;100841.78;6225483;28;20531;-86
2022/08/24 01:28:15;;;;;;;3.97;1.83;;;;;;;17.85;90.22;100839.63;6208011;28;20046;-86
2022/08/24 01:31:23;;;;;;;2.28;1.70;;;;;;;17.82;90.80;100842.59;6205118;28;20108;-86
2022/08/24 01:34:26;;;;;;;3.60;1.73;;;;;;;17.79;91.70;100848.13;6218152;28;20181;-86
2022/08/24 01:37:28;;;;;;;2.70;1.95;;;;;;;17.74;91.08;100839.94;6217016;28;20042;-85
2022/08/24 01:40:44;;;;;;;4.57;1.90;;;;;;;17.70;90.09;100846.44;6201559;28;20077;-86
2022/08/24 01:43:46;;;;;;;3.00;1.67;;;;;;;17.66;91.98;100839.88;6207910;28;20097;-86
2022/08/24 01:46:53;;;;;;;2.80;1.67;;;;;;;17.60;93.11;100849.22;6211965;28;20076;-86
2022/08/24 01:49:55;;;;;;;2.25;1.70;;;;;;;17.53;93.56;100850.81;6206964;28;20530;-86
2022/08/24 01:53:01;;;;;;;3.58;1.77;;;;;;;17.50;91.89;100850.31;6197797;28;20504;-86
2022/08/24 01:56:23;;;;;;;4.00;2.00;;;;;;;17.47;93.92;100850.66;6232497;28;20900;-86
2022/08/24 01:59:25;;;;;;;2.67;1.88;;;;;;;17.44;93.64;100860.44;6195910;28;20039;-86
2022/08/24 02:02:30;;;;;;;3.47;1.60;;;;;;;17.42;92.66;100859.78;6203925;28;20725;-86
2022/08/24 02:05:35;;;;;;;3.88;1.80;;;;;;;17.40;93.20;100861.72;6206535;28;20053;-86
2022/08/24 02:08:37;;;;;;;5.43;1.80;;;;;;;17.40;92.70;100863.53;6220843;28;20061;-86
2022/08/24 02:11:40;;;;;;;4.63;1.60;;;;;;;17.44;93.54;100863.06;6219034;28;20673;-86
2022/08/24 02:14:46;;;;;;;4.78;2.15;;;;;;;17.44;92.49;100857.84;6211133;28;20049;-85
2022/08/24 02:17:48;;;;;;;5.28;1.98;;;;;;;17.48;91.90;100860.13;6215594;28;20476;-86
2022/08/24 02:20:50;;;;;;;3.25;1.92;;;;;;;17.53;93.65;100863.09;6207044;28;20066;-86
2022/08/24 02:23:52;;;;;;;3.58;1.90;;;;;;;17.56;91.49;100865.38;6194380;28;20061;-85
2022/08/24 02:26:55;;;;;;;4.20;1.95;;;;;;;17.62;93.28;100859.53;6210224;28;20084;-86
2022/08/24 02:29:57;;;;;;;2.90;1.83;;;;;;;17.61;93.91;100861.34;6215469;28;20050;-86
2022/08/24 02:32:59;;;;;;;3.58;2.03;;;;;;;17.61;91.78;100860.50;6219759;28;20515;-86
2022/08/24 02:36:02;;;;;;;2.72;2.00;;;;;;;17.60;91.33;100858.88;6221552;28;20049;-86
2022/08/24 02:39:05;;;;;;;4.65;2.15;;;;;;;17.62;93.46;100872.63;6211334;28;20050;-86
2022/08/24 02:42:07;;;;;;;3.63;2.10;;;;;;;17.60;92.47;100871.94;6235681;28;20049;-85
2022/08/24 02:45:10;;;;;;;5.38;1.98;;;;;;;17.59;92.75;100878.19;6207287;28;20555;-86
2022/08/24 02:48:13;;;;;;;4.93;1.95;;;;;;;17.55;93.12;100872.44;6214872;28;20053;-85
2022/08/24 02:51:23;;;;;;;2.90;2.10;;;;;;;17.51;92.36;100880.75;6218555;28;20415;-86
2022/08/24 02:54:28;;;;;;;3.53;2.13;;;;;;;17.48;93.98;100874.03;6200289;28;20390;-85
2022/08/24 02:57:30;;;;;;;4.65;2.25;;;;;;;17.44;96.28;100868.31;6219506;28;20045;-85
2022/08/24 03:00:32;;;;;;;4.15;2.28;;;;;;;17.41;95.06;100868.59;6204268;28;20030;-85
2022/08/24 03:03:34;;;;;;;3.10;2.10;;;;;;;17.37;95.80;100874.31;6204283;28;20093;-86
2022/08/24 03:06:36;;;;;;;5.30;2.13;;;;;;;17.33;96.21;100876.41;6223470;28;20056;-86
2022/08/24 03:09:38;;;;;;;3.90;2.15;;;;;;;17.32;98.16;100877.41;6193276;28;20119;-86
2022/08/24 03:12:40;;;;;;;4.28;2.42;;;;;;;17.28;98.14;100883.91;6234558;28;20438;-86
2022/08/24 03:15:43;;;;;;;4.85;2.10;;;;;;;17.25;97.53;100879.00;6210610;28;20061;-85
2022/08/24 03:18:45;;;;;;;3.80;2.20;;;;;;;17.21;98.49;100878.47;6213361;28;20050;-86
2022/08/24 03:21:47;;;;;;;3.42;2.10;;;;;;;17.17;97.83;100881.59;6230438;28;20393;-86
2022/08/24 03:24:49;;;;;;;5.43;2.50;;;;;;;17.14;98.07;100884.50;6203894;28;20046;-86
2022/08/24 03:27:52;;;;;;;4.53;2.33;;;;;;;17.12;98.68;100881.22;6207128;28;20141;-85
2022/08/24 03:30:54;;;;;;;4.60;2.78;;;;;;;17.11;98.80;100883.00;6204688;28;20511;-85
2022/08/24 03:33:57;;;;;;;4.85;2.83;;;;;;;17.07;97.59;100884.31;6210314;28;20053;-86
2022/08/24 03:37:00;;;;;;;5.35;2.75;;;;;;;17.09;98.25;100887.59;6219380;28;20049;-85
2022/08/24 03:40:03;;;;;;;6.03;2.55;;;;;;;17.11;99.06;100883.00;6219083;28;20050;-85
2022/08/24 03:43:07;;;;;;;3.83;2.58;;;;;;;17.12;98.21;100881.22;6225280;28;20053;-86
2022/08/24 03:46:10;;;;;;;4.25;2.58;;;;;;;17.12;97.80;100876.00;6212275;28;20038;-85
2022/08/24 03:49:14;;;;;;;4.63;2.63;;;;;;;17.13;97.68;100875.00;6227472;28;20070;-86
2022/08/24 03:52:18;;;;;;;4.22;2.78;;;;;;;17.16;98.96;100878.13;6207297;28;20049;-85
2022/08/24 03:55:22;;;;;;;4.10;2.60;;;;;;;17.15;98.00;100878.31;6216239;28;20368;-86
2022/08/24 03:58:25;;;;;;;5.35;2.40;;;;;;;17.14;99.33;100881.88;6206591;28;20355;-85
2022/08/24 04:01:29;;;;;;;6.25;2.83;;;;;;;17.10;98.66;100891.03;6204805;28;20057;-86
2022/08/24 04:04:32;;;;;;;6.30;2.95;;;;;;;17.05;100.00;100882.81;6189169;28;20050;-86
2022/08/24 04:07:34;;;;;;;4.32;2.70;;;;;;;17.01;100.00;100884.91;6197852;28;20045;-86
2022/08/24 04:10:37;;;;;;;5.15;3.28;;;;;;;16.97;100.00;100881.78;6225511;28;20136;-86
2022/08/24 04:14:14;;;;;;;5.03;3.00;;;;;;;16.92;100.00;100889.28;6211860;28;20756;-86
2022/08/24 04:17:39;;;;;;;7.95;2.65;;;;;;;16.89;100.00;100886.13;6216776;28;20103;-86
2022/08/24 04:20:42;;;;;;;4.90;2.65;;;;;;;16.86;100.00;100879.41;6207658;28;20087;-86
2022/08/24 04:23:50;;;;;;;4.70;2.90;;;;;;;16.85;100.00;100871.75;6213809;28;20058;-85
2022/08/24 04:26:53;;;;;;;3.85;2.70;;;;;;;16.82;100.00;100878.09;6206822;28;20054;-86
2022/08/24 04:29:55;;;;;;;5.65;3.00;;;;;;;16.83;100.00;100884.97;6194653;28;20042;-86
2022/08/24 04:32:59;;;;;;;4.45;3.03;;;;;;;16.84;100.00;100881.38;6211999;28;20050;-86
2022/08/24 04:36:01;;;;;;;3.20;2.90;;;;;;;16.84;100.00;100885.78;6216312;28;20037;-87
2022/08/24 04:39:06;;;;;;;4.55;2.60;;;;;;;16.85;100.00;100882.22;6200474;28;20045;-86
2022/08/24 04:42:27;;;;;;;;;;;;;;;16.87;100.00;100890.69;6195759;28;20046;-86
2022/08/24 04:45:29;;;;;;;4.68;3.00;;;;;;;16.88;100.00;100889.75;6199385;28;19925;-86
2022/08/24 04:48:31;;;;;;;5.00;3.10;;;;;;;16.91;100.00;100892.84;6198321;28;20515;-85
2022/08/24 04:51:33;;;;;;;6.63;3.42;;;;;;;16.94;100.00;100891.72;6217574;28;20045;-86
2022/08/24 04:54:38;;;;;;;7.57;3.10;;;;;;;16.97;100.00;100894.88;6213213;28;20469;-86
2022/08/24 04:57:43;;;;;;;7.78;3.10;;;;;;;16.99;100.00;100890.31;6190533;28;20042;-86
2022/08/24 05:00:46;;;;;;;5.07;3.03;;;;;;;17.03;100.00;100892.63;6225186;28;20115;-86
2022/08/24 05:03:50;;;;;;;7.30;3.63;;;;;;;17.07;100.00;100901.78;6196313;28;20503;-86
2022/08/24 05:06:51;;;;;;;4.15;2.80;;;;;;;17.08;100.00;100913.91;6197999;28;20038;-86
2022/08/24 05:09:55;;;;;;;7.07;3.58;;;;;;;17.09;100.00;100912.91;6205536;28;20439;-86
2022/08/24 05:12:59;;;;;;;5.30;3.10;;;;;;;17.11;100.00;100911.78;6192592;28;20131;-86
2022/08/24 05:16:05;;;;;;;8.27;2.83;;;;;;;17.16;100.00;100909.53;6221906;28;20042;-86
2022/08/24 05:19:07;;;;;;;4.93;3.17;;;;;;;17.20;100.00;100908.25;6213201;28;20050;-85
2022/08/24 05:22:09;;;;;;;4.85;3.20;;;;;;;17.26;100.00;100912.03;6215911;28;20557;-86
2022/08/24 05:25:16;;;;;;;4.25;2.97;;;;;;;17.30;99.64;100917.78;6206322;28;20044;-86
2022/08/24 05:28:19;;;;;;;4.35;2.72;;;;;;;17.34;100.00;100912.09;6198358;28;20644;-85
2022/08/24 05:31:23;;;;;;;5.93;3.30;;;;;;;17.37;100.00;100914.41;6213396;28;20050;-86
2022/08/24 05:34:26;;;;;;;4.95;3.00;;;;;;;17.40;100.00;100919.31;6194716;28;20049;-85
2022/08/24 05:37:28;;;;;;;3.70;2.53;;;;;;;17.46;100.00;100922.28;6204417;28;20047;-86
2022/08/24 05:40:49;;;;;;;4.15;3.22;;;;;;;17.48;100.00;100915.09;6214815;28;20506;-85
2022/08/24 05:43:55;;;;;;;3.90;2.78;;;;;;;17.52;98.52;100922.47;6215076;28;20061;-85
2022/08/24 05:46:58;;;;;;;3.83;2.72;;;;;;;17.56;99.65;100921.16;6216504;28;20522;-86
2022/08/24 05:50:00;;;;;;;4.28;2.67;;;;;;;17.59;98.80;100920.88;6201686;28;20062;-86
2022/08/24 05:53:03;;;;;;;5.63;3.05;;;;;;;17.64;100.00;100920.41;6224000;28;20483;-85
2022/08/24 05:56:08;;;;;;;4.45;2.88;;;;;;;17.68;99.95;100916.47;6205892;28;20042;-86
2022/08/24 05:59:12;;;;;;;4.35;2.78;;;;;;;17.72;100.00;100917.00;6231656;28;20415;-85
2022/08/24 06:02:16;;;;;;;5.75;2.88;;;;;;;17.76;100.00;100929.63;6198311;28;20124;-86
2022/08/24 06:05:20;;;;;;;3.85;2.78;;;;;;;17.81;100.00;100944.88;6205567;28;20053;-86
2022/08/24 06:08:22;;;;;;;4.63;2.85;;;;;;;17.84;100.00;100942.78;6202607;28;20046;-86
2022/08/24 06:11:29;;;;;;;7.28;3.08;;;;;;;17.90;100.00;100950.97;6209927;28;20081;-86
2022/08/24 06:14:34;;;;;;;6.15;3.20;;;;;;;17.95;100.00;100948.69;6229064;28;20048;-86
2022/08/24 06:17:37;;;;;;;7.13;3.50;;;;;;;17.99;100.00;100953.47;6213289;28;20065;-86
2022/08/24 06:20:41;;;;;;;5.75;2.90;;;;;;;18.06;100.00;100956.25;6213075;28;20074;-86
2022/08/24 06:23:43;;;;;;;4.72;2.80;;;;;;;18.12;100.00;100958.25;6236697;28;20217;-85
2022/08/24 06:30:14;;;;;;;4.88;3.20;;;;;;;18.25;100.00;100963.00;6221513;28;20400;-86
2022/08/24 06:33:34;;;;;;;5.40;3.15;;;;;;;18.32;100.00;100961.41;6212872;28;20837;-86
2022/08/24 06:36:37;;;;;;;6.60;2.85;;;;;;;18.40;100.00;100965.81;6227297;28;20446;-86
2022/08/24 06:39:41;;;;;;;5.95;3.38;;;;;;;18.47;100.00;100966.81;6213004;28;20053;-86
2022/08/24 06:42:44;;;;;;;5.22;3.40;;;;;;;18.52;99.42;100964.53;6202463;28;20054;-86
2022/08/24 06:46:02;;;;;;;5.13;3.03;;;;;;;18.59;98.58;100962.09;6216035;28;20057;-85
2022/08/24 06:49:09;;;;;;;5.68;3.40;;;;;;;18.67;98.25;100976.00;6219974;28;20499;-86
2022/08/24 06:52:11;;;;;;;7.15;3.55;;;;;;;18.73;98.73;100970.13;6214649;28;20459;-86
2022/08/24 06:55:13;;;;;;;5.10;3.28;;;;;;;18.82;97.59;100968.34;6217592;28;20045;-86
2022/08/24 06:58:17;;;;;;;5.22;3.03;;;;;;;18.91;97.93;100974.44;6215467;28;20042;-86
2022/08/24 07:01:22;;;;;;;5.47;3.38;;;;;;;19.00;97.53;100970.78;6207205;28;20074;-86
2022/08/24 07:04:26;;;;;;;4.80;2.90;;;;;;;19.10;96.54;100975.88;6207408;28;20103;-86
2022/08/24 07:07:47;;;;;;;4.28;3.05;;;;;;;19.21;94.69;100977.34;6201523;28;20037;-86
2022/08/24 07:10:52;;;;;;;4.68;2.90;;;;;;;19.28;94.22;100973.88;6197786;28;20050;-86
2022/08/24 07:13:53;;;;;;;4.55;3.40;;;;;;;19.41;92.29;100983.88;6219992;28;20506;-86
2022/08/24 07:16:57;;;;;;;8.45;3.47;;;;;;;19.51;90.81;100987.13;6219762;28;20166;-86
2022/08/24 07:19:59;;;;;;;6.78;3.17;;;;;;;19.61;90.29;100991.38;6213234;28;20185;-86
2022/08/24 07:23:28;;;;;;;3.95;2.90;;;;;;;19.70;89.95;100985.94;6218964;28;20061;-86
2022/08/24 07:26:43;;;;;;;3.92;2.78;;;;;;;19.86;88.22;100994.75;6202141;28;20054;-86
2022/08/24 07:29:45;;;;;;;6.95;3.20;;;;;;;19.95;87.93;100999.81;6214801;28;20034;-86
2022/08/24 07:33:10;;;;;;;5.13;2.83;;;;;;;20.05;87.42;101001.38;6213922;28;20136;-86
2022/08/24 07:36:13;;;;;;;4.22;3.03;;;;;;;20.12;86.65;101003.19;6213070;28;20046;-86
2022/08/24 07:39:23;;;;;;;3.30;2.50;;;;;;;20.25;85.35;101007.03;6204456;28;20034;-86
2022/08/24 07:42:25;;;;;;;3.97;2.90;;;;;;;20.38;84.25;101005.50;6218767;28;20081;-86
2022/08/24 07:45:34;;;;;;;3.85;2.70;;;;;;;20.48;83.80;101002.63;6209996;28;20034;-86
2022/08/24 07:48:36;;;;;;;5.13;2.97;;;;;;;20.62;82.59;101008.97;6211391;28;20042;-86
2022/08/24 07:51:39;;;;;;;4.40;2.80;;;;;;;20.73;81.47;101008.56;6210889;28;20053;-86
2022/08/24 07:54:48;;;;;;;5.25;3.00;;;;;;;20.81;81.78;101013.75;6210879;28;20482;-86
2022/08/24 07:57:51;;;;;;;7.13;2.80;;;;;;;20.91;81.26;101005.63;6215308;28;20076;-86
2022/08/24 08:00:53;;;;;;;4.82;2.88;;;;;;;21.03;80.35;101012.09;6226772;28;20049;-86
2022/08/24 08:03:55;;;;;;;3.17;2.60;;;;;;;21.14;80.00;101016.16;6227976;28;20050;-87
2022/08/24 08:06:59;;;;;;;3.90;2.83;;;;;;;21.26;79.56;101009.41;6197480;28;20392;-86
2022/08/24 08:10:03;;;;;;;7.05;2.70;;;;;;;21.40;78.80;101009.66;6182075;28;20046;-86
2022/08/24 08:13:07;;;;;;;4.72;2.92;;;;;;;21.53;78.00;101022.22;6225627;28;20049;-86
2022/08/24 08:16:10;;;;;;;5.20;2.97;;;;;;;21.61;77.86;101020.28;6233664;28;20053;-86
2022/08/24 08:19:12;;;;;;;6.00;2.38;;;;;;;21.71;76.90;101020.84;6227129;28;20053;-86
2022/08/24 08:25:56;;;;;;;6.72;2.67;;;;;;;21.89;76.41;101014.41;6216584;28;20049;-87
2022/08/24 08:29:12;;;;;;;5.97;2.90;;;;;;;22.01;76.18;101020.00;6198451;28;20062;-86
2022/08/24 08:32:16;;;;;;;7.25;3.42;;;;;;;22.09;76.54;101012.81;6226923;28;20536;-86
2022/08/24 08:35:21;;;;;;;6.25;2.80;;;;;;;22.24;75.37;101012.00;6191954;28;20125;-86
2022/08/24 08:38:24;;;;;;;3.53;2.28;;;;;;;22.36;74.29;101010.50;6189729;28;20053;-86
2022/08/24 08:41:55;;;;;;;4.85;2.63;;;;;;;22.49;72.37;101000.09;6214972;28;20049;-86
2022/08/24 08:45:14;;;;;;;3.05;2.65;;;;;;;22.65;71.83;101006.94;6196439;28;20852;-86
2022/08/24 08:48:43;;;;;;;4.70;2.47;;;;;;;22.83;70.55;101003.84;6207786;28;20140;-86
2022/08/24 08:52:03;;;;;;;3.17;2.42;;;;;;;23.01;69.77;100998.13;6224370;28;20049;-87
2022/08/24 08:55:36;;;;;;;2.75;2.15;;;;;;;23.21;68.24;101007.00;6205563;28;20038;-86
2022/08/24 08:58:52;;;;;;;7.13;2.30;;;;;;;23.35;66.68;101004.44;6207417;28;20085;-86
2022/08/24 09:02:26;;;;;;;4.38;2.45;;;;;;;23.48;66.53;100996.63;6205633;28;20056;-86
2022/08/24 09:06:05;;;;;;;5.97;2.70;;;;;;;23.64;65.14;100992.84;6205087;28;20574;-87
2022/08/24 09:09:34;;;;;;;3.17;2.43;;;;;;;23.80;63.68;100989.06;6203797;28;20052;-87
2022/08/24 09:13:21;;;;;;;4.63;2.53;;;;;;;23.94;63.85;100987.28;6137101;28;20190;-87
2022/08/24 09:16:45;;;;;;;;;;;;;;;24.04;63.72;100985.91;6154089;28;20055;-87
2022/08/24 09:20:05;;;;;;;3.45;3.10;;;;;;;24.16;62.39;100986.16;6174496;28;19926;-87
2022/08/24 09:23:08;;;;;;;4.35;2.45;;;;;;;24.26;60.77;100986.56;6169537;28;20058;-87
2022/08/24 09:26:32;;;;;;;3.42;2.17;;;;;;;24.34;59.41;100992.69;6164520;28;20053;-87
2022/08/24 09:30:02;;;;;;;4.25;2.45;;;;;;;24.45;60.18;100986.84;6141531;28;20426;-87
2022/08/24 09:33:26;;;;;;;2.92;2.13;;;;;;;24.54;59.90;100988.28;6161569;28;20046;-87
2022/08/24 09:36:52;;;;;;;3.13;2.20;;;;;;;24.65;59.74;100995.63;6158757;28;20058;-87
2022/08/24 09:40:19;;;;;;;2.53;2.30;;;;;;;24.71;57.78;100986.06;6167876;28;20150;-87
2022/08/24 09:43:40;;;;;;;3.83;2.22;;;;;;;24.84;58.09;100985.25;6167113;28;20496;-88
2022/08/24 09:47:23;;;;;;;4.65;2.88;;;;;;;24.91;56.73;100988.69;6146266;28;20049;-87
2022/08/24 09:50:43;;;;;;;4.78;2.50;;;;;;;24.96;57.06;100988.09;6195163;28;20282;-88
2022/08/24 09:54:19;;;;;;;4.65;2.30;;;;;;;25.02;56.23;100981.97;6215163;28;20253;-87
2022/08/24 09:57:35;;;;;;;4.18;2.03;;;;;;;25.23;56.08;100984.41;6206231;28;20133;-87
2022/08/24 10:01:24;;;;;;;2.50;2.20;;;;;;;25.35;52.87;100981.97;6212114;28;20037;-88
2022/08/24 10:05:00;;;;;;;2.90;1.83;;;;;;;25.41;53.39;100981.09;6214678;28;20050;-89
2022/08/24 10:08:40;;;;;;;3.78;2.20;;;;;;;25.59;54.29;100988.41;6203849;28;20041;-89
2022/08/24 10:12:14;;;;;;;4.83;2.30;;;;;;;25.76;52.72;100992.22;6214836;28;20546;-89
2022/08/24 10:15:31;;;;;;;7.95;2.15;;;;;;;25.87;51.61;100982.81;6209805;28;20310;-89
2022/08/24 10:18:33;;;;;;;3.42;2.03;;;;;;;25.90;52.58;100977.09;6212602;28;20042;-89
2022/08/24 10:22:13;;;;;;;3.75;2.15;;;;;;;26.03;51.72;100984.16;6207565;28;20045;-89
2022/08/24 10:25:49;;;;;;;3.42;2.05;;;;;;;26.24;49.83;100972.44;6209577;28;20046;-90
2022/08/24 10:29:32;;;;;;;3.70;1.90;;;;;;;26.33;50.06;100973.78;6201040;28;20081;-91
2022/08/24 10:33:08;;;;;;;2.55;2.00;;;;;;;26.36;49.85;100964.56;6196450;28;20050;-90
2022/08/24 10:36:25;;;;;;;3.33;2.10;;;;;;;26.50;50.06;100973.25;6202010;28;20052;-90
2022/08/24 10:39:52;;;;;;;3.40;2.15;;;;;;;26.70;49.73;100959.84;6212928;28;20144;-90
2022/08/24 10:43:38;;;;;;;2.50;1.73;;;;;;;26.82;49.58;100958.94;6206697;28;20084;-91
2022/08/24 10:46:58;;;;;;;5.82;2.20;;;;;;;26.93;48.56;100954.75;6216717;28;20041;-90
2022/08/24 10:50:09;;;;;;;;;;;;;;;27.06;48.02;100959.94;6216536;28;20042;-91
2022/08/24 10:53:21;;;;;;;4.07;2.10;;;;;;;27.14;48.44;100963.34;6214996;28;19929;-91
2022/08/24 10:56:44;;;;;;;3.88;2.22;;;;;;;27.21;49.36;100961.47;6202859;28;20167;-91
2022/08/24 11:00:01;;;;;;;4.35;2.00;;;;;;;27.27;48.38;100963.22;6216598;28;20048;-91
2022/08/24 11:03:12;;;;;;;3.17;1.73;;;;;;;27.36;48.02;100963.75;6207482;28;20072;-91
2022/08/24 11:06:17;;;;;;;7.00;2.17;;;;;;;27.44;46.91;100960.78;6224093;28;20046;-92
2022/08/24 11:09:18;;;;;;;2.22;1.88;;;;;;;27.43;46.92;100959.97;6203675;28;20503;-91
2022/08/24 11:12:31;;;;;;;2.58;1.90;;;;;;;27.59;46.49;100965.72;6163521;28;1147912;-91
2022/08/24 11:15:40;;;;;;;3.35;1.75;;;;;;;27.65;45.46;100954.19;6207028;28;20042;-91
2022/08/24 11:18:47;;;;;;;4.28;2.13;;;;;;;27.74;46.17;100955.50;6205166;28;20057;-91
2022/08/24 11:21:51;;;;;;;4.65;2.00;;;;;;;27.80;45.38;100961.78;6210407;28;20038;-91
2022/08/24 11:25:04;;;;;;;2.75;2.05;;;;;;;27.89;45.15;100961.25;6209571;28;20042;-91
2022/08/24 11:28:29;;;;;;;2.35;1.88;;;;;;;28.09;43.81;100954.84;6215660;28;20042;-91
2022/08/24 11:31:37;;;;;;;4.60;2.05;;;;;;;28.23;42.87;100956.28;6133093;29;20227;-92
2022/08/24 11:34:45;;;;;;;3.45;1.75;;;;;;;28.24;43.02;100952.56;6121668;29;20501;-90
2022/08/24 11:37:50;;;;;;;3.75;1.90;;;;;;;28.35;42.65;100945.69;6131805;28;20501;-93
2022/08/24 11:41:13;;;;;;;3.05;1.70;;;;;;;28.35;42.30;100949.16;6129323;29;20051;-92
2022/08/24 11:44:53;;;;;;;2.72;1.92;;;;;;;28.45;41.54;100945.94;6114274;29;20102;-89
2022/08/24 11:48:15;;;;;;;2.55;2.03;;;;;;;28.63;40.56;100949.56;6130111;29;20518;-91
2022/08/24 11:51:35;;;;;;;4.43;1.80;;;;;;;28.75;40.67;100951.19;6132956;29;20051;-92
2022/08/24 11:54:55;;;;;;;2.42;1.90;;;;;;;28.92;42.48;100945.97;6136922;29;20055;-93
2022/08/24 11:58:05;;;;;;;3.65;1.85;;;;;;;29.05;42.04;100942.25;6120896;29;20043;-95
2022/08/24 12:01:24;;;;;;;3.30;1.75;;;;;;;29.08;41.52;100941.81;6117324;29;20541;-92
2022/08/24 12:04:43;;;;;;;4.17;1.90;;;;;;;29.22;40.65;100942.38;6135963;29;20974;-92
2022/08/24 12:07:51;;;;;;;2.85;1.83;;;;;;;29.38;40.84;100946.16;6148804;28;20392;-93
2022/08/24 12:11:22;;;;;;;3.60;1.80;;;;;;;29.58;40.25;100940.41;6203744;28;20045;-91
2022/08/24 12:14:35;;;;;;;3.35;1.70;;;;;;;29.84;41.65;100947.88;6206112;28;20143;-91
2022/08/24 12:18:03;;;;;;;2.47;1.77;;;;;;;30.00;40.24;100942.81;6196880;28;20065;-93
2022/08/24 12:21:07;;;;;;;4.60;1.70;;;;;;;30.17;39.56;100945.50;6183101;28;20104;-92
2022/08/24 12:24:24;;;;;;;1.80;1.48;;;;;;;30.40;39.17;100942.72;6206475;28;20578;-92
2022/08/24 12:27:32;;;;;;;2.33;1.92;;;;;;;30.55;38.51;100944.81;6200268;28;20057;-92
2022/08/24 12:30:35;;;;;;;5.20;1.80;;;;;;;30.68;38.23;100952.50;6193359;28;20392;-88
2022/08/24 12:33:44;;;;;;;4.63;2.20;;;;;;;30.83;37.46;100943.94;6191939;28;20050;-92
2022/08/24 12:37:11;;;;;;;2.77;1.70;;;;;;;31.01;37.54;100950.06;6187397;28;20289;-91
2022/08/24 12:40:38;;;;;;;3.08;1.80;;;;;;;31.05;37.53;100940.47;6198444;28;20909;-91
2022/08/24 12:43:51;;;;;;;2.60;1.75;;;;;;;31.24;38.32;100936.44;6191738;28;20129;-92
2022/08/24 12:46:53;;;;;;;1.95;1.65;;;;;;;31.43;37.08;100942.31;6187139;28;20045;-91
2022/08/24 12:50:27;;;;;;;3.90;1.88;;;;;;;31.58;38.08;100939.00;6174092;28;20057;-92
2022/08/24 12:54:01;;;;;;;1.83;1.67;;;;;;;31.78;36.98;100941.09;6197911;28;20432;-94
2022/08/24 12:57:22;;;;;;;4.63;1.75;;;;;;;31.88;36.38;100938.50;6127717;29;20171;-92
2022/08/24 13:00:51;;;;;;;6.45;1.70;;;;;;;32.11;36.73;100933.91;6130527;29;20059;-91
2022/08/24 13:04:30;;;;;;;4.07;2.00;;;;;;;32.22;35.23;100938.28;6083125;29;20064;-91
2022/08/24 13:07:45;;;;;;;3.05;1.70;;;;;;;32.42;35.94;100934.94;6084942;29;20056;-89
2022/08/24 13:11:04;;;;;;;4.20;2.20;;;;;;;32.60;35.93;100933.78;6079567;29;20517;-89
2022/08/24 13:14:26;;;;;;;4.28;2.08;;;;;;;32.78;35.50;100940.59;6087373;29;20095;-89
2022/08/24 13:17:40;;;;;;;3.80;1.92;;;;;;;32.90;36.13;100930.47;6087085;29;20128;-89
2022/08/24 13:20:42;;;;;;;6.85;2.40;;;;;;;33.06;34.72;100927.88;6086649;29;20562;-89
2022/08/24 13:23:44;;;;;;;3.53;2.15;;;;;;;33.12;34.61;100937.53;6084922;29;20508;-89
2022/08/24 13:26:46;;;;;;;5.05;2.30;;;;;;;33.19;35.67;100922.00;6086259;29;20652;-90
2022/08/24 13:29:53;;;;;;;3.58;2.20;;;;;;;33.23;35.55;100923.13;6086661;29;20044;-89
2022/08/24 13:33:02;;;;;;;6.30;2.58;;;;;;;33.28;35.10;100920.44;6101148;28;20328;-89
2022/08/24 13:36:27;;;;;;;5.25;2.08;;;;;;;33.42;34.26;100918.88;6147872;28;20090;-89
2022/08/24 13:39:53;;;;;;;4.13;2.33;;;;;;;33.60;35.03;100914.94;6138514;28;20131;-89
2022/08/24 13:43:18;;;;;;;6.00;2.55;;;;;;;33.74;34.64;100911.72;6196519;28;20443;-90
2022/08/24 13:46:44;;;;;;;2.42;2.10;;;;;;;33.77;33.62;100906.63;6192965;28;20049;-89
2022/08/24 13:50:13;;;;;;;2.88;2.25;;;;;;;33.85;33.74;100903.41;6199331;28;20129;-89
2022/08/24 13:53:25;;;;;;;4.32;2.40;;;;;;;33.91;32.98;100906.09;6199725;28;20066;-90
2022/08/24 13:56:38;;;;;;;4.75;2.22;;;;;;;34.02;32.57;100910.41;6195499;28;20049;-89
2022/08/24 14:00:00;;;;;;;4.70;2.03;;;;;;;34.12;32.29;100904.25;6196916;28;20373;-89
2022/08/24 14:03:23;;;;;;;8.85;2.28;;;;;;;34.20;32.75;100906.41;6195777;28;20049;-89
2022/08/24 14:06:47;;;;;;;3.30;2.20;;;;;;;34.33;33.16;100911.22;6209434;28;20451;-89
2022/08/24 14:10:31;;;;;;;4.00;2.05;;;;;;;34.40;31.91;100910.94;6208355;28;20053;-90
2022/08/24 14:14:06;;;;;;;5.53;2.20;;;;;;;34.42;32.29;100920.34;6213803;28;20154;-90
2022/08/24 14:21:32;;;;;;;5.85;2.13;;;;;;;34.44;32.22;100912.81;6211030;28;20052;-90
2022/08/24 14:25:20;;;;;;;4.97;2.08;;;;;;;34.49;31.68;100902.06;6138434;29;20075;-89
2022/08/24 14:28:42;;;;;;;2.55;1.80;;;;;;;34.48;31.75;100908.50;6109513;29;20720;-89
2022/08/24 14:31:54;;;;;;;5.57;2.58;;;;;;;34.57;32.19;100905.25;6128407;29;20556;-90
2022/08/24 14:35:22;;;;;;;3.95;2.22;;;;;;;34.53;31.78;100905.00;6101544;29;20130;-90
2022/08/24 14:38:36;;;;;;;5.13;2.08;;;;;;;34.63;31.56;100901.50;6105830;29;20130;-90
2022/08/24 14:41:53;;;;;;;4.15;2.35;;;;;;;34.59;31.53;100895.06;6131788;29;20062;-89
2022/08/24 14:45:25;;;;;;;3.08;2.25;;;;;;;34.63;31.63;100896.91;6121092;29;20147;-90
2022/08/24 14:48:49;;;;;;;2.58;2.25;;;;;;;34.76;30.32;100898.25;6122229;29;20066;-89
2022/08/24 14:52:34;;;;;;;11.82;2.67;;;;;;;34.82;31.53;100889.06;6103832;29;20070;-89
2022/08/24 14:55:44;;;;;;;3.50;2.08;;;;;;;34.79;31.72;100886.13;6176968;28;20124;-89
2022/08/24 14:59:10;;;;;;;4.40;2.30;;;;;;;34.83;30.80;100882.59;6223918;28;20042;-90
2022/08/24 15:02:24;;;;;;;3.47;1.77;;;;;;;34.88;31.46;100877.22;6226199;28;20037;-91